createdAt,value
2018-02-10T00:02:49.554Z,100925.98
2018-02-10T00:07:44.255Z,100925.91
2018-02-10T00:12:38.516Z,100935.89
2018-02-10T00:17:32.989Z,100938.83
2018-02-10T00:22:35.327Z,100933.08
2018-02-10T00:27:29.600Z,100942.52
2018-02-10T00:32:24.872Z,100941.20
2018-02-10T00:37:19.149Z,100939.06
2018-02-10T00:42:13.447Z,100944.62
2018-02-10T00:47:07.738Z,100949.37
2018-02-10T00:52:01.995Z,100955.44
2018-02-10T00:56:56.272Z,100956.27
2018-02-10T01:01:50.677Z,100956.63
2018-02-10T01:06:44.945Z,100961.38
2018-02-10T01:11:39.514Z,100961.78
2018-02-10T01:16:33.782Z,100965.75
2018-02-10T01:21:28.079Z,100966.14
2018-02-10T01:26:22.716Z,100964.88
2018-02-10T01:31:16.993Z,100971.93
2018-02-10T01:36:11.269Z,100975.93
2018-02-10T01:41:05.663Z,100975.61
2018-02-10T01:45:59.932Z,100968.72
2018-02-10T01:50:54.235Z,100969.63
2018-02-10T01:55:49.272Z,100970.61
2018-02-10T02:00:44.481Z,100968.15
2018-02-10T02:05:39.321Z,100961.33
2018-02-10T02:10:33.672Z,100967.91
2018-02-10T02:15:28.146Z,100975.31
2018-02-10T02:20:22.418Z,100973.13
2018-02-10T02:25:17.659Z,100975.24
2018-02-10T02:30:11.952Z,100972.19
2018-02-10T02:35:06.258Z,100974.05
2018-02-10T02:40:00.556Z,100970.59
2018-02-10T02:44:54.872Z,100970.70
2018-02-10T02:49:49.165Z,100968.02
2018-02-10T02:54:44.484Z,100972.41
2018-02-10T02:59:38.782Z,100959.81
2018-02-10T03:04:33.148Z,100970.13
2018-02-10T03:09:28.349Z,100973.25
2018-02-10T03:14:22.882Z,100983.09
2018-02-10T03:19:17.940Z,100981.45
2018-02-10T03:24:12.238Z,100987.16
2018-02-10T03:29:06.538Z,100999.46
2018-02-10T03:34:00.825Z,101002.44
2018-02-10T03:38:55.109Z,101001.03
2018-02-10T03:43:49.614Z,101008.55
2018-02-10T03:48:44.664Z,101003.67
2018-02-10T03:53:38.982Z,101001.36
2018-02-10T03:58:33.290Z,101009.64
2018-02-10T04:03:27.598Z,101018.39
2018-02-10T04:08:21.933Z,101018.39
2018-02-10T04:13:16.999Z,101029.31
2018-02-10T04:18:11.312Z,101040.11
2018-02-10T04:23:05.864Z,101033.47
2018-02-10T04:28:01.784Z,101036.01
2018-02-10T04:32:56.339Z,101042.00
2018-02-10T04:37:50.638Z,101045.93
2018-02-10T04:42:45.040Z,101049.38
2018-02-10T04:47:39.328Z,101055.78
2018-02-10T04:52:33.663Z,101062.57
2018-02-10T04:57:28.146Z,101066.75
2018-02-10T05:02:22.441Z,101068.86
2018-02-10T05:07:16.708Z,101081.39
2018-02-10T05:12:11.769Z,101075.66
2018-02-10T05:17:06.061Z,101079.46
2018-02-10T05:22:00.390Z,101074.16
2018-02-10T05:26:54.689Z,101072.77
2018-02-10T05:31:48.986Z,101080.98
2018-02-10T05:36:43.323Z,101081.82
2018-02-10T05:41:37.786Z,101072.58
2018-02-10T05:46:32.179Z,101068.58
2018-02-10T05:51:26.475Z,101066.72
2018-02-10T05:56:21.623Z,101068.42
2018-02-10T06:01:16.017Z,101069.17
2018-02-10T06:06:10.325Z,101072.59
2018-02-10T06:11:04.600Z,101079.90
2018-02-10T06:15:58.962Z,101073.03
2018-02-10T06:20:53.262Z,101075.72
2018-02-10T06:25:48.304Z,101072.11
2018-02-10T06:30:42.601Z,101067.42
2018-02-10T06:35:37.712Z,101075.31
2018-02-10T06:40:32.781Z,101082.37
2018-02-10T06:45:27.636Z,101084.27
2018-02-10T06:50:22.668Z,101076.89
2018-02-10T06:55:18.141Z,101083.10
2018-02-10T07:00:12.441Z,101082.23
2018-02-10T07:05:06.763Z,101081.91
2018-02-10T07:10:01.074Z,101080.13
2018-02-10T07:14:56.145Z,101082.30
2018-02-10T07:19:50.442Z,101081.32
2018-02-10T07:24:44.770Z,101081.17
2018-02-10T07:29:39.352Z,101088.41
2018-02-10T07:34:33.737Z,101102.69
2018-02-10T07:39:28.055Z,101121.70
2018-02-10T07:44:22.378Z,101112.30
2018-02-10T07:49:16.858Z,101120.88
2018-02-10T07:54:11.149Z,101116.36
2018-02-10T07:59:05.531Z,101108.78
2018-02-10T08:04:00.602Z,101117.31
2018-02-10T08:08:55.050Z,101113.62
2018-02-10T08:13:50.742Z,101114.20
2018-02-10T08:18:45.659Z,101121.43
2018-02-10T08:23:39.960Z,101126.07
2018-02-10T08:28:34.278Z,101113.31
2018-02-10T08:33:28.841Z,101117.20
2018-02-10T08:38:23.130Z,101111.83
2018-02-10T08:43:17.311Z,101112.56
2018-02-10T08:48:12.364Z,101122.48
2018-02-10T08:53:06.874Z,101121.48
2018-02-10T08:58:01.199Z,101119.65
2018-02-10T09:02:55.674Z,101115.19
2018-02-10T09:07:50.131Z,101126.03
2018-02-10T09:12:44.385Z,101128.00
2018-02-10T09:17:38.666Z,101131.18
2018-02-10T09:22:32.973Z,101127.66
2018-02-10T09:27:27.245Z,101137.48
2018-02-10T09:32:22.318Z,101137.80
2018-02-10T09:37:16.614Z,101137.35
2018-02-10T09:42:11.108Z,101136.43
2018-02-10T09:47:05.397Z,101140.32
2018-02-10T09:51:59.689Z,101138.14
2018-02-10T09:56:53.994Z,101135.52
2018-02-10T10:01:48.276Z,101141.63
2018-02-10T10:06:43.351Z,101147.62
2018-02-10T10:11:37.645Z,101147.52
2018-02-10T10:16:32.445Z,101152.48
2018-02-10T10:21:26.732Z,101153.91
2018-02-10T10:26:21.285Z,101156.14
2018-02-10T10:31:15.747Z,101154.09
2018-02-10T10:36:10.173Z,101158.91
2018-02-10T10:41:05.867Z,101162.51
2018-02-10T10:46:00.412Z,101161.30
2018-02-10T10:50:54.857Z,101153.13
2018-02-10T10:55:49.901Z,101147.05
2018-02-10T11:00:44.202Z,101146.80
2018-02-10T11:05:38.649Z,101144.30
2018-02-10T11:10:33.004Z,101135.55
2018-02-10T11:15:27.283Z,101127.96
2018-02-10T11:20:23.259Z,101132.58
2018-02-10T11:25:17.536Z,101134.02
2018-02-10T11:30:12.680Z,101127.27
2018-02-10T11:35:07.123Z,101132.58
2018-02-10T11:40:01.618Z,101133.73
2018-02-10T11:44:56.299Z,101132.30
2018-02-10T11:49:50.669Z,101124.87
2018-02-10T11:54:45.830Z,101122.88
2018-02-10T11:59:40.097Z,101125.84
2018-02-10T12:04:35.141Z,101115.88
2018-02-10T12:09:29.433Z,101122.44
2018-02-10T12:14:23.735Z,101118.21
2018-02-10T12:19:18.048Z,101108.68
2018-02-10T12:24:12.340Z,101111.85
2018-02-10T12:29:06.603Z,101110.16
2018-02-10T12:34:01.694Z,101105.83
2018-02-10T12:38:55.972Z,101104.62
2018-02-10T12:43:50.318Z,101105.94
2018-02-10T13:04:32.289Z,101090.84
2018-02-10T13:09:27.536Z,101093.48
2018-02-10T13:14:21.831Z,101091.23
2018-02-10T13:19:16.127Z,101090.02
2018-02-10T13:24:10.408Z,101085.91
2018-02-10T13:29:04.634Z,101076.98
2018-02-10T13:33:58.921Z,101069.73
2018-02-10T13:38:53.417Z,101066.65
2018-02-10T13:43:47.677Z,101071.27
2018-02-10T13:48:42.753Z,101066.32
2018-02-10T13:53:37.056Z,101064.92
2018-02-10T13:58:31.350Z,101063.53
2018-02-10T14:03:25.700Z,101071.68
2018-02-10T14:08:20.749Z,101064.19
2018-02-10T14:13:15.057Z,101057.37
2018-02-10T14:18:09.640Z,101064.39
2018-02-10T14:23:04.631Z,101053.77
2018-02-10T14:27:59.860Z,101055.86
2018-02-10T14:32:54.922Z,101056.11
2018-02-10T14:37:49.210Z,101053.11
2018-02-10T14:42:43.555Z,101055.23
2018-02-10T14:47:37.856Z,101049.39
2018-02-10T14:52:32.158Z,101050.70
2018-02-10T14:57:26.728Z,101053.39
2018-02-10T15:02:21.000Z,101049.88
2018-02-10T15:07:16.304Z,101054.27
2018-02-10T15:12:10.764Z,101059.46
2018-02-10T15:17:05.759Z,101060.45
2018-02-10T15:21:59.973Z,101057.48
2018-02-10T15:26:54.076Z,101057.30
2018-02-10T15:32:05.715Z,101054.03
2018-02-10T15:36:59.827Z,101059.00
2018-02-10T15:41:54.114Z,101058.71
2018-02-10T15:46:48.468Z,101060.18
2018-02-10T15:51:42.786Z,101071.70
2018-02-10T15:56:37.286Z,101060.33
2018-02-10T16:01:31.617Z,101052.06
2018-02-10T16:06:25.894Z,101048.23
2018-02-10T16:11:20.489Z,101052.48
2018-02-10T16:16:14.790Z,101045.16
2018-02-10T16:21:09.095Z,101039.86
2018-02-10T16:26:03.392Z,101041.58
2018-02-10T16:30:57.716Z,101046.69
2018-02-10T16:35:52.034Z,101046.44
2018-02-10T16:40:46.310Z,101037.86
2018-02-10T16:45:40.628Z,101034.94
2018-02-10T16:50:34.917Z,101035.38
2018-02-10T16:55:29.205Z,101027.92
2018-02-10T17:00:23.511Z,101033.14
2018-02-10T17:05:17.898Z,101030.92
2018-02-10T17:10:12.793Z,101033.83
2018-02-10T17:15:07.052Z,101026.63
2018-02-10T17:20:01.352Z,101022.98
2018-02-10T17:24:55.630Z,101020.11
2018-02-10T17:29:49.926Z,101017.13
2018-02-10T17:34:44.303Z,101016.77
2018-02-10T17:39:38.584Z,101014.55
2018-02-10T17:44:33.677Z,101015.42
2018-02-10T17:49:28.012Z,101015.09
2018-02-10T17:54:22.868Z,101018.67
2018-02-10T17:59:17.157Z,101017.90
2018-02-10T18:04:11.471Z,101018.77
2018-02-10T18:09:05.037Z,101018.27
2018-02-10T18:13:59.326Z,101020.72
2018-02-10T18:18:54.363Z,101011.50
2018-02-10T18:23:48.677Z,101016.29
2018-02-10T18:28:42.937Z,100994.95
2018-02-10T18:33:37.229Z,100999.73
2018-02-10T18:38:32.620Z,100981.52
2018-02-10T18:43:27.086Z,100968.58
2018-02-10T18:48:21.385Z,100971.33
2018-02-10T18:53:15.729Z,100958.38
2018-02-10T18:58:10.032Z,100972.84
2018-02-10T19:03:04.393Z,100952.81
2018-02-10T19:07:58.652Z,100940.55
2018-02-10T19:12:53.714Z,100931.30
2018-02-10T19:17:47.992Z,100930.77
2018-02-10T19:22:42.272Z,100922.85
2018-02-10T19:27:37.470Z,100921.98
2018-02-10T19:32:32.095Z,100915.45
2018-02-10T19:37:26.573Z,100907.14
2018-02-10T19:42:20.857Z,100905.32
2018-02-10T19:47:15.158Z,100901.37
2018-02-10T19:52:09.453Z,100894.33
2018-02-10T19:57:03.738Z,100878.13
2018-02-10T20:01:58.456Z,100874.57
2018-02-10T20:06:53.333Z,100865.27
2018-02-10T20:11:49.793Z,100873.39
2018-02-10T20:16:44.954Z,100869.44
2018-02-10T20:21:39.419Z,100862.86
2018-02-10T20:26:34.502Z,100848.98
2018-02-10T20:31:28.810Z,100844.64
2018-02-10T20:36:23.174Z,100845.43
2018-02-10T20:41:17.454Z,100844.48
2018-02-10T20:46:11.732Z,100847.45
2018-02-10T20:51:06.799Z,100849.47
2018-02-10T20:56:01.094Z,100840.27
2018-02-10T21:00:55.356Z,100839.76
2018-02-10T21:05:50.425Z,100829.65
2018-02-10T21:10:44.856Z,100831.31
2018-02-10T21:15:39.150Z,100822.55
2018-02-10T21:20:34.238Z,100810.30
2018-02-10T21:25:28.534Z,100797.19
2018-02-10T21:30:22.826Z,100785.94
2018-02-10T21:35:17.192Z,100779.91
2018-02-10T21:40:12.212Z,100772.98
2018-02-10T21:45:07.413Z,100783.05
2018-02-10T21:50:02.450Z,100768.80
2018-02-10T21:54:57.488Z,100764.08
2018-02-10T21:59:51.815Z,100755.37
2018-02-10T22:04:46.132Z,100736.67
2018-02-10T22:09:40.431Z,100724.91
2018-02-10T22:14:34.718Z,100708.75
2018-02-10T22:19:28.992Z,100696.45
2018-02-10T22:24:23.290Z,100679.06
2018-02-10T22:29:17.582Z,100670.39
2018-02-10T22:34:12.646Z,100668.69
2018-02-10T22:39:06.954Z,100648.17
2018-02-10T22:44:01.238Z,100643.84
2018-02-10T22:48:55.582Z,100636.83
2018-02-10T22:53:50.689Z,100624.54
2018-02-10T22:58:45.142Z,100614.03
2018-02-10T23:03:39.502Z,100609.97
2018-02-10T23:08:34.534Z,100600.28
2018-02-10T23:13:29.694Z,100592.34
2018-02-10T23:18:23.975Z,100587.47
2018-02-10T23:23:18.324Z,100566.53
2018-02-10T23:28:12.605Z,100553.55
2018-02-10T23:33:07.037Z,100540.52
2018-02-10T23:38:01.385Z,100533.55
2018-02-10T23:42:55.683Z,100532.92
2018-02-10T23:47:50.729Z,100515.77
2018-02-10T23:52:45.033Z,100508.16
2018-02-10T23:57:39.310Z,100490.52
